< < Back
Terminal Aerodrome Forecast


Current Version              Previous Versions:   1  2  3  4  5  6  7  8  9  

Terminal Aerodrome Forecast

999
FTUS44 KOHX 012300
TAFCSV
TAF
KCSV 012329Z 0200/0224 VRB03KT P6SM SKC
     FM021300 19007KT P6SM SCT040=

Latest METAR

363
SAUS70 KWBC 020958
MTRCSV
METAR KCSV 020953Z AUTO 00000KT 7SM CLR 15/12 A3008 RMK AO2 SLP167
T01500122


USA.gov is the U.S. government's official web portal to all federal, state and local government web resources and services.